createdAt,value
2023-03-10T00:01:31.125Z,6.35
2023-03-10T00:03:59.234Z,5.05
2023-03-10T00:06:27.596Z,6.63
2023-03-10T00:08:55.231Z,7.95
2023-03-10T00:11:22.637Z,6.38
2023-03-10T00:13:50.091Z,8.05
2023-03-10T00:16:22.187Z,7.38
2023-03-10T00:18:50.002Z,7.65
2023-03-10T00:21:21.818Z,7.78
2023-03-10T00:23:49.440Z,7.72
2023-03-10T00:26:17.686Z,8.25
2023-03-10T00:28:45.468Z,7.30
2023-03-10T00:31:13.855Z,7.32
2023-03-10T00:33:41.374Z,6.65
2023-03-10T00:36:08.984Z,7.35
2023-03-10T00:38:37.202Z,6.57
2023-03-10T00:41:09.230Z,10.38
2023-03-10T00:43:36.850Z,6.50
2023-03-10T00:46:04.945Z,6.82
2023-03-10T00:48:32.889Z,8.55
2023-03-10T00:51:00.527Z,6.50
2023-03-10T00:53:28.619Z,7.22
2023-03-10T00:56:03.998Z,7.05
2023-03-10T00:58:31.830Z,8.77
2023-03-10T01:00:59.798Z,6.45
2023-03-10T01:03:28.682Z,7.60
2023-03-10T01:05:56.916Z,6.32
2023-03-10T01:08:24.692Z,6.13
2023-03-10T01:10:52.139Z,7.68
2023-03-10T01:13:19.918Z,7.22
2023-03-10T01:15:51.215Z,8.02
2023-03-10T01:18:19.366Z,6.60
2023-03-10T01:20:47.320Z,8.48
2023-03-10T01:23:16.357Z,7.43
2023-03-10T01:25:44.097Z,7.53
2023-03-10T01:28:11.844Z,8.18
2023-03-10T01:30:39.564Z,6.78
2023-03-10T01:33:07.936Z,6.72
2023-03-10T01:35:36.828Z,7.18
2023-03-10T01:38:04.417Z,7.32
2023-03-10T01:40:32.049Z,6.97
2023-03-10T01:43:16.600Z,5.63
2023-03-10T01:45:47.081Z,6.40
2023-03-10T01:48:17.672Z,8.80
2023-03-10T01:50:47.146Z,7.35
2023-03-10T01:53:15.816Z,7.80
2023-03-10T01:55:46.691Z,6.45
2023-03-10T01:58:15.930Z,6.30
2023-03-10T02:00:44.095Z,7.88
2023-03-10T02:03:23.739Z,7.00
2023-03-10T02:05:56.916Z,6.85
2023-03-10T02:08:25.647Z,7.35
2023-03-10T02:10:53.520Z,6.45
2023-03-10T02:13:22.185Z,8.07
2023-03-10T02:15:49.721Z,7.30
2023-03-10T02:18:19.116Z,8.30
2023-03-10T02:20:56.452Z,8.27
2023-03-10T02:23:32.248Z,8.38
2023-03-10T02:26:06.401Z,7.25
2023-03-10T02:28:33.990Z,7.85
2023-03-10T02:31:02.468Z,7.45
2023-03-10T02:33:31.653Z,7.30
2023-03-10T02:36:03.697Z,7.93
2023-03-10T02:38:31.166Z,8.60
2023-03-10T02:40:58.589Z,7.88
2023-03-10T02:43:33.717Z,7.65
2023-03-10T02:46:14.293Z,7.60
2023-03-10T02:48:44.216Z,7.45
2023-03-10T02:51:20.945Z,7.00
2023-03-10T02:53:48.575Z,8.10
2023-03-10T02:56:16.588Z,7.90
2023-03-10T02:58:46.280Z,5.85
2023-03-10T03:01:13.816Z,9.25
2023-03-10T03:03:42.796Z,8.52
2023-03-10T03:06:10.907Z,6.32
2023-03-10T03:08:38.807Z,7.63
2023-03-10T03:11:09.184Z,7.43
2023-03-10T03:13:37.060Z,7.22
2023-03-10T03:16:06.516Z,8.35
2023-03-10T03:18:34.004Z,7.28
2023-03-10T03:21:08.281Z,8.32
2023-03-10T03:23:38.039Z,6.90
2023-03-10T03:26:13.947Z,9.23
2023-03-10T03:28:42.556Z,7.68
2023-03-10T03:31:14.256Z,8.55
2023-03-10T03:33:42.077Z,9.68
2023-03-10T03:36:10.336Z,8.60
2023-03-10T03:38:38.204Z,8.80
2023-03-10T03:41:06.429Z,7.32
2023-03-10T03:43:35.074Z,7.82
2023-03-10T03:46:02.747Z,7.35
2023-03-10T03:48:30.301Z,8.23
2023-03-10T03:50:57.925Z,7.63
2023-03-10T03:53:31.391Z,8.02
2023-03-10T03:55:59.009Z,7.38
2023-03-10T03:58:30.149Z,7.28
2023-03-10T04:00:57.652Z,8.82
2023-03-10T04:03:27.039Z,7.93
2023-03-10T04:05:54.778Z,7.50
2023-03-10T04:08:22.349Z,10.18
2023-03-10T04:10:52.436Z,9.27
2023-03-10T04:13:21.460Z,9.30
2023-03-10T04:15:50.091Z,10.23
2023-03-10T04:18:18.501Z,11.93
2023-03-10T04:20:46.091Z,9.27
2023-03-10T04:23:13.700Z,8.25
2023-03-10T04:25:43.140Z,9.43
2023-03-10T04:28:13.093Z,9.25
2023-03-10T04:30:44.304Z,7.90
2023-03-10T04:33:13.425Z,7.13
2023-03-10T04:35:47.626Z,10.48
2023-03-10T04:38:17.878Z,8.77
2023-03-10T04:40:46.988Z,8.38
2023-03-10T04:43:14.497Z,7.88
2023-03-10T04:45:42.107Z,9.55
2023-03-10T04:48:10.065Z,7.63
2023-03-10T04:50:37.518Z,9.55
2023-03-10T04:53:04.962Z,6.53
2023-03-10T04:55:32.466Z,6.80
2023-03-10T04:58:01.005Z,7.15
2023-03-10T05:00:29.134Z,6.60
2023-03-10T05:02:56.590Z,9.38
2023-03-10T05:05:24.212Z,8.07
2023-03-10T05:07:51.633Z,8.82
2023-03-10T05:10:20.741Z,9.85
2023-03-10T05:12:48.286Z,7.60
2023-03-10T05:15:15.757Z,7.53
2023-03-10T05:17:43.190Z,8.60
2023-03-10T05:20:11.417Z,8.25
2023-03-10T05:22:39.151Z,8.90
2023-03-10T05:25:09.781Z,6.88
2023-03-10T05:27:38.538Z,10.68
2023-03-10T05:30:07.222Z,9.63
2023-03-10T05:32:35.453Z,5.35
2023-03-10T05:35:04.149Z,5.28
2023-03-10T05:37:36.728Z,5.60
2023-03-10T05:40:05.118Z,5.85
2023-03-10T05:42:32.669Z,5.70
2023-03-10T05:45:00.020Z,6.53
2023-03-10T05:47:27.765Z,6.65
2023-03-10T05:49:55.535Z,7.00
2023-03-10T05:52:23.279Z,6.75
2023-03-10T05:54:51.225Z,5.97
2023-03-10T05:57:18.693Z,5.85
2023-03-10T05:59:46.895Z,5.47
2023-03-10T06:02:14.894Z,7.25
2023-03-10T06:04:42.294Z,6.72
2023-03-10T06:07:09.736Z,6.18
2023-03-10T06:09:37.155Z,6.45
2023-03-10T06:12:04.696Z,5.43
2023-03-10T06:14:32.053Z,6.28
2023-03-10T06:16:59.481Z,6.03
2023-03-10T06:19:27.536Z,6.55
2023-03-10T06:21:55.035Z,7.63
2023-03-10T06:24:22.431Z,5.75
2023-03-10T06:26:50.200Z,7.57
2023-03-10T06:29:17.609Z,8.57
2023-03-10T06:31:45.054Z,5.20
2023-03-10T06:34:12.481Z,5.40
2023-03-10T06:36:40.433Z,7.05
2023-03-10T06:39:08.382Z,4.70
2023-03-10T06:41:36.494Z,5.03
2023-03-10T06:44:04.130Z,4.82
2023-03-10T06:46:31.680Z,4.40
2023-03-10T06:48:59.062Z,8.82
2023-03-10T06:51:26.461Z,5.78
2023-03-10T06:53:55.182Z,6.50
2023-03-10T06:56:23.244Z,5.78
2023-03-10T06:58:50.679Z,5.50
2023-03-10T07:01:34.398Z,6.93
2023-03-10T07:04:02.479Z,5.50
2023-03-10T07:06:30.337Z,4.40
2023-03-10T07:08:57.802Z,3.83
2023-03-10T07:11:25.813Z,5.07
2023-03-10T07:13:53.969Z,5.75
2023-03-10T07:16:21.841Z,5.35
2023-03-10T07:18:49.451Z,5.20
2023-03-10T07:21:18.801Z,6.53
2023-03-10T07:23:46.578Z,6.47
2023-03-10T07:26:18.903Z,4.95
2023-03-10T07:28:46.845Z,5.82
2023-03-10T07:31:15.059Z,6.18
2023-03-10T07:33:42.725Z,5.50
2023-03-10T07:36:11.586Z,6.40
2023-03-10T07:38:39.056Z,6.45
2023-03-10T07:41:07.479Z,7.13
2023-03-10T07:43:34.914Z,6.95
2023-03-10T07:46:05.220Z,3.92
2023-03-10T07:48:32.845Z,4.25
2023-03-10T07:51:00.702Z,4.75
2023-03-10T07:53:28.556Z,5.32
2023-03-10T07:55:56.221Z,5.97
2023-03-10T07:58:24.666Z,5.75
2023-03-10T08:00:58.570Z,7.20
2023-03-10T08:03:26.969Z,8.93
2023-03-10T08:05:54.529Z,7.55
2023-03-10T08:08:23.217Z,5.75
2023-03-10T08:10:50.818Z,5.03
2023-03-10T08:13:18.354Z,5.25
2023-03-10T08:15:45.813Z,4.53
2023-03-10T08:18:13.272Z,5.35
2023-03-10T08:20:40.792Z,4.53
2023-03-10T08:23:08.213Z,7.30
2023-03-10T08:25:35.656Z,4.75
2023-03-10T08:28:03.066Z,3.70
2023-03-10T08:30:30.583Z,4.10
2023-03-10T08:32:58.135Z,5.45
2023-03-10T08:35:26.249Z,5.22
2023-03-10T08:37:55.307Z,4.25
2023-03-10T08:40:22.953Z,4.38
2023-03-10T08:42:50.306Z,4.65
2023-03-10T08:45:17.870Z,5.40
2023-03-10T08:47:45.437Z,4.82
2023-03-10T08:50:13.352Z,5.50
2023-03-10T08:52:41.084Z,3.83
2023-03-10T08:55:09.179Z,4.90
2023-03-10T08:57:36.635Z,6.57
2023-03-10T09:00:06.386Z,5.25
2023-03-10T09:02:34.040Z,4.55
2023-03-10T09:05:01.531Z,5.50
2023-03-10T09:07:28.970Z,3.75
2023-03-10T09:09:56.485Z,5.00
2023-03-10T09:12:23.901Z,5.22
2023-03-10T09:14:51.491Z,3.97
2023-03-10T09:17:18.991Z,4.47
2023-03-10T09:19:46.481Z,4.85
2023-03-10T09:22:13.958Z,4.13
2023-03-10T09:24:41.334Z,3.78
2023-03-10T09:27:08.704Z,4.60
2023-03-10T09:29:43.130Z,4.30
2023-03-10T09:34:38.648Z,4.57
2023-03-10T09:37:08.419Z,5.78
2023-03-10T09:39:36.001Z,4.72
2023-03-10T09:42:03.405Z,3.05
2023-03-10T09:44:30.923Z,4.93
2023-03-10T09:47:27.762Z,7.20
2023-03-10T09:50:04.622Z,7.00
2023-03-10T09:52:46.165Z,5.05
2023-03-10T09:55:13.586Z,4.05
2023-03-10T09:57:41.068Z,4.80
2023-03-10T10:00:11.017Z,4.15
2023-03-10T10:02:41.727Z,2.33
2023-03-10T10:05:26.162Z,2.25
2023-03-10T10:07:57.621Z,5.53
2023-03-10T10:10:29.233Z,8.55
2023-03-10T10:12:59.373Z,9.13
2023-03-10T10:15:27.892Z,9.05
2023-03-10T10:18:12.172Z,6.28
2023-03-10T10:21:09.373Z,6.75
2023-03-10T10:23:54.878Z,11.30
2023-03-10T10:26:24.360Z,14.13
2023-03-10T10:28:59.585Z,12.57
2023-03-10T10:31:31.415Z,5.50
2023-03-10T10:34:03.996Z,4.25
2023-03-10T10:36:33.124Z,6.72
2023-03-10T10:39:00.907Z,7.40
2023-03-10T10:41:32.844Z,6.78
2023-03-10T10:44:14.552Z,12.60
2023-03-10T10:46:51.884Z,5.32
2023-03-10T10:49:29.526Z,7.90
2023-03-10T10:51:58.937Z,10.07
2023-03-10T10:54:31.855Z,4.20
2023-03-10T10:57:00.754Z,10.32
2023-03-10T10:59:35.518Z,6.47
2023-03-10T11:04:41.700Z,13.57
2023-03-10T11:07:11.052Z,4.65
2023-03-10T11:09:38.645Z,5.68
2023-03-10T11:12:09.358Z,3.95
2023-03-10T11:14:52.625Z,5.30
2023-03-10T11:17:28.608Z,6.57
2023-03-10T11:20:14.134Z,5.18
2023-03-10T11:22:44.444Z,8.45
2023-03-10T11:25:12.002Z,6.03
2023-03-10T11:27:42.212Z,4.10
2023-03-10T11:30:15.818Z,4.65
2023-03-10T11:32:47.930Z,4.18
2023-03-10T11:35:21.558Z,4.35
2023-03-10T11:37:52.350Z,4.30
2023-03-10T11:40:24.202Z,4.70
2023-03-10T11:43:10.323Z,4.65
2023-03-10T11:45:40.150Z,4.93
2023-03-10T11:48:26.502Z,7.78
2023-03-10T11:50:54.876Z,9.07
2023-03-10T11:53:25.046Z,5.80
2023-03-10T11:55:53.282Z,7.30
2023-03-10T11:58:40.916Z,3.33
2023-03-10T12:01:09.855Z,3.13
2023-03-10T12:03:40.518Z,3.65
2023-03-10T12:06:17.899Z,4.22
2023-03-10T12:08:45.934Z,4.90
2023-03-10T12:11:16.280Z,3.35
2023-03-10T12:13:45.627Z,2.55
2023-03-10T12:16:24.457Z,3.00
2023-03-10T12:18:53.547Z,7.63
2023-03-10T12:21:21.007Z,3.83
2023-03-10T12:23:50.049Z,3.83
2023-03-10T12:26:37.428Z,3.65
2023-03-10T12:29:25.104Z,3.22
2023-03-10T12:31:53.488Z,4.68
2023-03-10T12:34:22.430Z,7.45
2023-03-10T12:37:03.491Z,5.20
2023-03-10T12:39:34.319Z,11.55
2023-03-10T12:42:02.982Z,8.98
2023-03-10T12:44:45.370Z,7.25
2023-03-10T12:47:16.400Z,5.63
2023-03-10T12:49:56.012Z,3.40
2023-03-10T12:52:29.239Z,4.60
2023-03-10T12:55:05.804Z,4.45
2023-03-10T12:57:52.136Z,3.15
2023-03-10T13:00:34.840Z,4.00
2023-03-10T13:03:05.392Z,4.53
2023-03-10T13:05:35.318Z,6.20
2023-03-10T13:08:23.325Z,9.55
2023-03-10T13:10:55.586Z,8.55
2023-03-10T13:13:26.115Z,12.90
2023-03-10T13:16:04.201Z,10.18
2023-03-10T13:18:31.687Z,7.30
2023-03-10T13:21:01.687Z,10.50
2023-03-10T13:23:37.313Z,7.13
2023-03-10T13:26:08.791Z,6.30
2023-03-10T13:28:36.515Z,5.32
2023-03-10T13:31:10.139Z,4.35
2023-03-10T13:33:50.110Z,9.07
2023-03-10T13:36:30.219Z,5.25
2023-03-10T13:38:58.261Z,4.60
2023-03-10T13:41:25.956Z,5.18
2023-03-10T13:43:54.789Z,7.53
2023-03-10T13:46:29.711Z,5.47
2023-03-10T13:48:58.240Z,6.43
2023-03-10T13:51:32.056Z,4.82
2023-03-10T13:54:20.464Z,7.85
2023-03-10T13:56:49.113Z,8.13
2023-03-10T13:59:18.197Z,9.80
2023-03-10T14:01:50.061Z,8.63
2023-03-10T14:04:18.856Z,11.27
2023-03-10T14:06:46.950Z,11.05
2023-03-10T14:09:17.076Z,11.55
2023-03-10T14:11:46.939Z,7.30
2023-03-10T14:14:25.981Z,8.40
2023-03-10T14:16:55.200Z,7.35
2023-03-10T14:19:41.358Z,9.63
2023-03-10T14:22:27.372Z,7.40
2023-03-10T14:24:55.113Z,5.90
2023-03-10T14:27:22.573Z,4.97
2023-03-10T14:29:54.504Z,5.43
2023-03-10T14:32:22.480Z,8.52
2023-03-10T14:34:49.972Z,6.57
2023-03-10T14:37:17.728Z,7.68
2023-03-10T14:39:45.136Z,6.25
2023-03-10T14:42:18.501Z,4.95
2023-03-10T14:44:45.927Z,4.20
2023-03-10T14:47:13.575Z,4.10
2023-03-10T14:49:41.331Z,6.95
2023-03-10T14:52:14.488Z,8.18
2023-03-10T14:54:41.925Z,20.15
2023-03-10T14:57:09.419Z,14.02
2023-03-10T14:59:36.857Z,9.13
2023-03-10T15:02:11.310Z,15.10
2023-03-10T15:04:38.770Z,16.38
2023-03-10T15:07:06.181Z,13.63
2023-03-10T15:09:33.683Z,11.07
2023-03-10T15:12:01.385Z,12.13
2023-03-10T15:14:28.952Z,8.57
2023-03-10T15:16:56.453Z,10.05
2023-03-10T15:19:25.227Z,12.63
2023-03-10T15:21:53.166Z,15.55
2023-03-10T15:24:21.000Z,11.25
2023-03-10T15:26:48.444Z,10.80
2023-03-10T15:29:16.781Z,9.95
2023-03-10T15:31:44.375Z,9.23
2023-03-10T15:34:11.793Z,9.70
2023-03-10T15:36:39.299Z,9.02
2023-03-10T15:39:06.754Z,10.88
2023-03-10T15:41:35.165Z,7.95
2023-03-10T15:44:02.656Z,8.20
2023-03-10T15:46:30.499Z,5.78
2023-03-10T15:48:58.218Z,5.55
2023-03-10T15:51:25.644Z,5.90
2023-03-10T15:53:53.098Z,7.20
2023-03-10T15:56:20.625Z,7.78
2023-03-10T15:58:48.082Z,7.03
2023-03-10T16:01:18.203Z,5.65
2023-03-10T16:03:45.679Z,9.27
2023-03-10T16:06:13.966Z,12.23
2023-03-10T16:08:41.843Z,10.07
2023-03-10T16:11:15.852Z,9.25
2023-03-10T16:13:45.805Z,8.70
2023-03-10T16:16:13.532Z,8.07
2023-03-10T16:18:41.042Z,9.98
2023-03-10T16:21:08.463Z,11.02
2023-03-10T16:23:35.960Z,9.50
2023-03-10T16:26:08.354Z,7.72
2023-03-10T16:28:36.258Z,11.13
2023-03-10T16:31:04.381Z,7.88
2023-03-10T16:33:32.064Z,11.15
2023-03-10T16:36:00.394Z,10.68
2023-03-10T16:38:28.195Z,7.80
2023-03-10T16:40:57.234Z,7.68
2023-03-10T16:43:25.155Z,7.13
2023-03-10T16:45:52.626Z,6.97
2023-03-10T16:48:20.427Z,7.75
2023-03-10T16:50:50.010Z,8.65
2023-03-10T16:53:17.889Z,6.93
2023-03-10T16:55:45.433Z,10.52
2023-03-10T16:58:12.930Z,9.50
2023-03-10T17:00:40.994Z,8.10
2023-03-10T17:03:08.515Z,10.85
2023-03-10T17:05:36.009Z,9.00
2023-03-10T17:08:06.095Z,6.93
2023-03-10T17:10:33.651Z,6.45
2023-03-10T17:13:01.104Z,7.85
2023-03-10T17:15:30.155Z,6.90
2023-03-10T17:17:57.557Z,7.15
2023-03-10T17:20:26.580Z,7.80
2023-03-10T17:22:53.958Z,6.93
2023-03-10T17:25:21.502Z,7.05
2023-03-10T17:27:49.166Z,8.57
2023-03-10T17:30:19.109Z,9.25
2023-03-10T17:32:49.497Z,8.70
2023-03-10T17:35:17.117Z,8.85
2023-03-10T17:37:46.597Z,9.57
2023-03-10T17:40:15.374Z,8.38
2023-03-10T17:42:42.900Z,9.30
2023-03-10T17:45:10.439Z,9.73
2023-03-10T17:47:37.872Z,7.63
2023-03-10T17:50:05.543Z,7.68
2023-03-10T17:52:33.070Z,7.53
2023-03-10T17:55:01.059Z,8.93
2023-03-10T17:57:28.605Z,9.15
2023-03-10T17:59:56.468Z,8.35
2023-03-10T18:02:24.092Z,10.73
2023-03-10T18:04:51.702Z,9.27
2023-03-10T18:07:19.194Z,8.90
2023-03-10T18:09:46.560Z,10.25
2023-03-10T18:12:13.956Z,9.80
2023-03-10T18:14:41.398Z,8.88
2023-03-10T18:17:08.766Z,10.57
2023-03-10T18:19:36.566Z,8.90
2023-03-10T18:22:05.701Z,8.93
2023-03-10T18:24:34.422Z,10.38
2023-03-10T18:27:02.500Z,10.95
2023-03-10T18:29:29.947Z,11.52
2023-03-10T18:31:57.458Z,9.55
2023-03-10T18:34:24.971Z,11.75
2023-03-10T18:36:52.822Z,16.58
2023-03-10T18:39:20.417Z,18.63
2023-03-10T18:41:47.926Z,21.17
2023-03-10T18:44:15.365Z,21.88
2023-03-10T18:46:42.977Z,28.92
2023-03-10T18:49:10.580Z,23.05
2023-03-10T18:51:38.037Z,37.90
2023-03-10T18:54:06.935Z,33.70
2023-03-10T18:56:34.769Z,33.90
2023-03-10T18:59:02.173Z,31.98
2023-03-10T19:01:29.740Z,33.33
2023-03-10T19:03:57.236Z,34.08
2023-03-10T19:06:31.781Z,29.08
2023-03-10T19:08:59.380Z,38.45
2023-03-10T19:11:27.939Z,40.28
2023-03-10T19:13:55.686Z,40.15
2023-03-10T19:16:23.101Z,39.80
2023-03-10T19:18:50.836Z,40.75
2023-03-10T19:21:18.417Z,39.63
2023-03-10T19:23:46.744Z,49.50
2023-03-10T19:26:15.450Z,48.35
2023-03-10T19:28:43.101Z,49.53
2023-03-10T19:31:14.299Z,42.28
2023-03-10T19:33:42.317Z,47.67
2023-03-10T19:36:11.984Z,45.08
2023-03-10T19:38:40.180Z,45.78
2023-03-10T19:41:11.364Z,46.88
2023-03-10T19:43:38.947Z,47.03
2023-03-10T19:46:08.096Z,46.75
2023-03-10T19:48:35.653Z,47.90
2023-03-10T19:51:05.515Z,48.13
2023-03-10T19:53:33.681Z,48.60
2023-03-10T19:56:03.689Z,49.53
2023-03-10T19:58:34.450Z,47.10
2023-03-10T20:01:02.230Z,44.13
2023-03-10T20:03:31.120Z,42.42
2023-03-10T20:05:58.718Z,42.88
2023-03-10T20:08:26.249Z,43.30
2023-03-10T20:10:53.722Z,40.20
2023-03-10T20:13:21.260Z,42.22
2023-03-10T20:15:48.724Z,38.75
2023-03-10T20:18:18.467Z,40.95
2023-03-10T20:20:46.005Z,42.03
2023-03-10T20:23:13.536Z,37.17
2023-03-10T20:25:40.982Z,42.10
2023-03-10T20:28:08.462Z,35.92
2023-03-10T20:30:37.514Z,33.63
2023-03-10T20:33:05.088Z,30.17
2023-03-10T20:35:33.044Z,31.30
2023-03-10T20:38:01.848Z,32.03
2023-03-10T20:40:29.525Z,30.02
2023-03-10T20:43:00.056Z,30.13
2023-03-10T20:45:27.732Z,36.45
2023-03-10T20:47:55.380Z,37.83
2023-03-10T20:50:23.584Z,37.58
2023-03-10T20:52:51.753Z,36.13
2023-03-10T20:55:21.325Z,31.52
2023-03-10T20:57:49.176Z,30.92
2023-03-10T21:00:17.812Z,35.15
2023-03-10T21:02:49.213Z,33.97
2023-03-10T21:05:16.835Z,26.58
2023-03-10T21:07:44.205Z,25.15
2023-03-10T21:10:13.420Z,25.35
2023-03-10T21:12:41.185Z,25.88
2023-03-10T21:15:09.098Z,21.92
2023-03-10T21:17:39.577Z,24.60
2023-03-10T21:20:10.664Z,22.25
2023-03-10T21:22:39.268Z,25.77
2023-03-10T21:25:07.711Z,29.05
2023-03-10T21:27:35.656Z,25.73
2023-03-10T21:30:05.974Z,24.85
2023-03-10T21:32:33.509Z,24.33
2023-03-10T21:35:00.948Z,28.42
2023-03-10T21:37:28.479Z,26.00
2023-03-10T21:39:55.836Z,47.45
2023-03-10T21:42:23.266Z,76.15
2023-03-10T21:44:52.541Z,27.17
2023-03-10T21:47:19.975Z,45.10
2023-03-10T21:49:47.404Z,31.65
2023-03-10T21:52:15.069Z,35.10
2023-03-10T21:54:43.421Z,40.95
2023-03-10T21:57:11.027Z,40.22
2023-03-10T21:59:38.472Z,31.67
2023-03-10T22:02:05.910Z,27.85
2023-03-10T22:04:33.555Z,26.75
2023-03-10T22:07:00.988Z,32.47
2023-03-10T22:09:29.074Z,34.58
2023-03-10T22:11:57.890Z,35.47
2023-03-10T22:14:25.419Z,37.13
2023-03-10T22:16:52.937Z,77.30
2023-03-10T22:19:20.319Z,66.18
2023-03-10T22:21:47.885Z,35.58
2023-03-10T22:24:15.284Z,42.15
2023-03-10T22:26:43.049Z,92.80
2023-03-10T22:29:10.413Z,83.32
2023-03-10T22:31:37.994Z,73.50
2023-03-10T22:34:05.501Z,72.88
2023-03-10T22:36:32.929Z,63.67
2023-03-10T22:39:00.374Z,59.10
2023-03-10T22:41:28.011Z,77.72
2023-03-10T22:43:56.128Z,81.82
2023-03-10T22:46:23.595Z,52.90
2023-03-10T22:48:51.058Z,46.28
2023-03-10T22:51:19.115Z,74.78
2023-03-10T22:53:49.940Z,60.42
2023-03-10T22:56:17.401Z,79.60
2023-03-10T22:58:44.817Z,84.55
2023-03-10T23:01:12.263Z,88.68
2023-03-10T23:03:41.615Z,96.47
2023-03-10T23:06:09.150Z,73.32
2023-03-10T23:08:37.616Z,71.07
2023-03-10T23:11:09.538Z,77.75
2023-03-10T23:13:37.020Z,47.58
2023-03-10T23:16:04.807Z,43.88
2023-03-10T23:18:32.323Z,36.38
2023-03-10T23:20:59.884Z,39.00
2023-03-10T23:23:27.385Z,39.53
2023-03-10T23:25:54.777Z,37.80
2023-03-10T23:28:22.319Z,34.88
2023-03-10T23:30:50.917Z,34.13
2023-03-10T23:33:19.712Z,26.30
2023-03-10T23:35:50.447Z,22.23
2023-03-10T23:38:17.941Z,24.52
2023-03-10T23:40:45.334Z,23.33
2023-03-10T23:43:12.908Z,22.95
2023-03-10T23:45:40.337Z,24.65
2023-03-10T23:48:09.144Z,23.50
2023-03-10T23:50:38.348Z,22.48
2023-03-10T23:53:07.139Z,23.02
2023-03-10T23:55:37.227Z,23.25
2023-03-10T23:58:05.060Z,22.35
